createdAt,value
2023-04-29T00:02:44.739Z,99759.78
2023-04-29T00:07:46.149Z,99768.31
2023-04-29T00:12:47.422Z,99779.22
2023-04-29T00:17:48.795Z,99775.34
2023-04-29T00:22:50.150Z,99777.81
2023-04-29T00:27:51.433Z,99775.47
2023-04-29T00:32:53.240Z,99770.13
2023-04-29T00:37:55.059Z,99780.31
2023-04-29T00:42:57.200Z,99776.13
2023-04-29T00:47:58.635Z,99768.59
2023-04-29T00:53:01.107Z,99781.47
2023-04-29T00:58:05.287Z,99775.78
2023-04-29T01:03:07.918Z,99776.09
2023-04-29T01:08:28.116Z,99784.63
2023-04-29T01:13:34.724Z,99777.41
2023-04-29T01:18:46.123Z,99782.38
2023-04-29T01:23:47.534Z,99785.22
2023-04-29T01:29:04.945Z,99784.72
2023-04-29T01:34:19.998Z,99775.03
2023-04-29T01:39:32.762Z,99785.59
2023-04-29T01:44:35.927Z,99789.13
2023-04-29T01:49:37.804Z,99789.75
2023-04-29T01:54:39.302Z,99784.03
2023-04-29T01:59:41.947Z,99788.41
2023-04-29T02:04:43.650Z,99788.25
2023-04-29T02:09:45.164Z,99793.09
2023-04-29T02:14:47.850Z,99789.22
2023-04-29T02:19:49.185Z,99795.44
2023-04-29T02:24:50.488Z,99805.47
2023-04-29T02:29:52.139Z,99800.09
2023-04-29T02:34:53.626Z,99803.97
2023-04-29T02:39:55.174Z,99802.28
2023-04-29T02:44:56.874Z,99821.03
2023-04-29T02:49:58.238Z,99811.34
2023-04-29T02:54:59.593Z,99818.03
2023-04-29T03:00:00.966Z,99823.88
2023-04-29T03:05:02.567Z,99818.38
2023-04-29T03:10:04.539Z,99821.00
2023-04-29T03:15:07.616Z,99824.16
2023-04-29T03:20:10.878Z,99822.94
2023-04-29T03:25:13.954Z,99817.44
2023-04-29T03:30:15.565Z,99826.03
2023-04-29T03:35:17.058Z,99813.03
2023-04-29T03:40:19.020Z,99824.38
2023-04-29T03:45:20.676Z,99825.84
2023-04-29T03:50:23.190Z,99837.06
2023-04-29T03:55:24.525Z,99847.25
2023-04-29T04:00:31.111Z,99851.78
2023-04-29T04:05:32.874Z,99854.16
2023-04-29T04:10:34.157Z,99858.16
2023-04-29T04:15:36.026Z,99867.22
2023-04-29T04:20:37.553Z,99873.53
2023-04-29T04:25:39.091Z,99887.56
2023-04-29T04:30:40.724Z,99898.50
2023-04-29T04:35:42.795Z,99896.81
2023-04-29T04:40:44.485Z,99891.03
2023-04-29T04:45:45.914Z,99908.25
2023-04-29T04:50:47.383Z,99913.59
2023-04-29T04:55:49.826Z,99912.22
2023-04-29T05:00:51.714Z,99916.66
2023-04-29T05:05:57.140Z,99922.03
2023-04-29T05:10:58.656Z,99925.03
2023-04-29T05:16:05.160Z,99930.22
2023-04-29T05:21:07.667Z,99934.88
2023-04-29T05:26:09.145Z,99945.72
2023-04-29T05:31:11.275Z,99958.34
2023-04-29T05:36:12.678Z,99961.25
2023-04-29T05:41:14.108Z,99963.06
2023-04-29T05:46:16.600Z,99973.03
2023-04-29T05:51:19.931Z,99984.78
2023-04-29T05:56:22.324Z,99992.44
2023-04-29T06:01:23.826Z,100000.47
2023-04-29T06:06:26.116Z,100007.13
2023-04-29T06:11:27.544Z,100014.03
2023-04-29T06:16:28.968Z,100016.59
2023-04-29T06:21:32.219Z,100027.41
2023-04-29T06:26:33.574Z,100023.63
2023-04-29T06:31:34.938Z,100039.56
2023-04-29T06:36:36.326Z,100041.44
2023-04-29T06:41:37.912Z,100057.66
2023-04-29T06:46:39.748Z,100055.84
2023-04-29T06:51:42.776Z,100064.84
2023-04-29T06:56:44.238Z,100067.22
2023-04-29T07:01:48.314Z,100057.22
2023-04-29T07:06:51.116Z,100071.50
2023-04-29T07:11:52.457Z,100085.09
2023-04-29T07:16:54.925Z,100077.53
2023-04-29T07:21:56.299Z,100086.56
2023-04-29T07:26:57.645Z,100092.91
2023-04-29T07:32:00.556Z,100098.63
2023-04-29T07:37:01.893Z,100108.84
2023-04-29T07:42:04.472Z,100110.94
2023-04-29T07:47:06.778Z,100126.31
2023-04-29T07:52:09.999Z,100137.41
2023-04-29T07:57:11.426Z,100131.56
2023-04-29T08:02:14.249Z,100139.88
2023-04-29T08:07:15.645Z,100149.59
2023-04-29T08:12:17.334Z,100149.09
2023-04-29T08:17:18.887Z,100164.88
2023-04-29T08:22:20.371Z,100164.56
2023-04-29T08:27:21.895Z,100172.59
2023-04-29T08:32:23.410Z,100174.06
2023-04-29T08:37:24.743Z,100176.59
2023-04-29T08:42:34.354Z,100185.63
2023-04-29T08:47:37.029Z,100194.13
2023-04-29T08:52:38.464Z,100185.81
2023-04-29T08:57:43.135Z,100184.53
2023-04-29T09:02:53.460Z,100196.34
2023-04-29T09:07:57.297Z,100198.72
2023-04-29T09:12:58.661Z,100196.56
2023-04-29T09:18:00.055Z,100203.75
2023-04-29T09:23:06.259Z,100203.13
2023-04-29T09:28:17.275Z,100211.19
2023-04-29T09:33:18.695Z,100217.53
2023-04-29T09:38:20.940Z,100210.50
2023-04-29T09:43:23.555Z,100216.78
2023-04-29T09:48:31.858Z,100223.81
2023-04-29T09:53:34.659Z,100230.09
2023-04-29T09:58:40.071Z,100230.63
2023-04-29T10:03:42.726Z,100233.56
2023-04-29T10:08:46.166Z,100239.91
2023-04-29T10:13:52.090Z,100242.22
2023-04-29T10:18:55.776Z,100250.94
2023-04-29T10:23:59.367Z,100243.44
2023-04-29T10:29:01.899Z,100240.06
2023-04-29T10:34:03.350Z,100234.53
2023-04-29T10:39:08.498Z,100243.44
2023-04-29T10:44:10.242Z,100227.66
2023-04-29T10:49:11.668Z,100242.31
2023-04-29T10:54:20.351Z,100246.53
2023-04-29T10:59:42.893Z,100245.53
2023-04-29T11:05:10.886Z,100253.66
2023-04-29T11:10:13.288Z,100250.75
2023-04-29T11:15:18.157Z,100241.47
2023-04-29T11:20:19.720Z,100246.47
2023-04-29T11:25:21.065Z,100240.47
2023-04-29T11:30:23.145Z,100238.78
2023-04-29T11:35:24.474Z,100242.00
2023-04-29T11:40:26.195Z,100246.72
2023-04-29T11:45:28.090Z,100250.41
2023-04-29T11:50:32.447Z,100253.31
2023-04-29T11:55:34.472Z,100246.28
2023-04-29T12:00:36.191Z,100255.69
2023-04-29T12:05:37.512Z,100250.59
2023-04-29T12:10:38.821Z,100253.91
2023-04-29T12:15:40.997Z,100256.69
2023-04-29T12:20:42.607Z,100261.19
2023-04-29T12:25:49.778Z,100257.41
2023-04-29T12:30:53.855Z,100261.50
2023-04-29T12:35:56.724Z,100272.22
2023-04-29T12:41:01.982Z,100265.63
2023-04-29T12:46:05.359Z,100271.50
2023-04-29T12:51:09.865Z,100276.19
2023-04-29T12:56:12.250Z,100276.88
2023-04-29T13:01:16.601Z,100277.09
2023-04-29T13:06:20.366Z,100278.97
2023-04-29T13:11:21.786Z,100277.81
2023-04-29T13:16:24.794Z,100275.97
2023-04-29T13:21:27.832Z,100276.22
2023-04-29T13:26:29.196Z,100283.31
2023-04-29T13:31:30.831Z,100279.06
2023-04-29T13:36:32.377Z,100283.44
2023-04-29T13:41:35.582Z,100287.38
2023-04-29T13:46:38.108Z,100296.09
2023-04-29T13:57:30.194Z,100292.91
2023-04-29T14:07:10.046Z,100305.22
2023-04-29T14:12:11.630Z,100299.59
2023-04-29T14:17:13.123Z,100309.38
2023-04-29T14:22:15.103Z,100320.13
2023-04-29T14:27:16.517Z,100317.09
2023-04-29T14:32:17.862Z,100318.03
2023-04-29T14:37:19.230Z,100330.84
2023-04-29T14:42:20.610Z,100328.16
2023-04-29T14:47:22.018Z,100326.03
2023-04-29T14:52:23.445Z,100331.25
2023-04-29T14:57:25.026Z,100342.00
2023-04-29T15:02:26.670Z,100336.47
2023-04-29T15:07:30.431Z,100355.13
2023-04-29T15:12:33.268Z,100367.00
2023-04-29T15:17:34.634Z,100365.66
2023-04-29T15:22:36.059Z,100370.13
2023-04-29T15:27:38.308Z,100385.03
2023-04-29T15:32:39.883Z,100385.06
2023-04-29T15:37:41.244Z,100388.16
2023-04-29T15:42:42.769Z,100391.44
2023-04-29T15:47:44.248Z,100396.41
2023-04-29T15:52:45.637Z,100404.06
2023-04-29T15:57:47.076Z,100406.03
2023-04-29T16:02:48.419Z,100397.06
2023-04-29T16:07:49.789Z,100404.97
2023-04-29T16:12:51.339Z,100402.75
2023-04-29T16:17:53.012Z,100402.22
2023-04-29T16:22:54.326Z,100408.69
2023-04-29T16:27:55.777Z,100397.91
2023-04-29T16:32:57.327Z,100407.59
2023-04-29T16:37:58.837Z,100406.63
2023-04-29T16:43:00.354Z,100413.38
2023-04-29T16:48:01.971Z,100416.22
2023-04-29T16:53:04.358Z,100412.69
2023-04-29T16:58:05.799Z,100409.28
2023-04-29T17:03:07.366Z,100419.03
2023-04-29T17:08:08.823Z,100423.69
2023-04-29T17:13:10.424Z,100430.38
2023-04-29T17:18:13.154Z,100427.56
2023-04-29T17:23:14.450Z,100427.19
2023-04-29T17:28:15.846Z,100439.47
2023-04-29T17:33:17.657Z,100439.50
2023-04-29T17:38:19.111Z,100441.47
2023-04-29T17:43:20.442Z,100450.38
2023-04-29T17:48:22.589Z,100448.84
2023-04-29T17:53:24.140Z,100459.16
2023-04-29T17:58:27.293Z,100456.19
2023-04-29T18:03:30.735Z,100461.84
2023-04-29T18:08:32.533Z,100470.59
2023-04-29T18:13:34.883Z,100476.78
2023-04-29T18:18:37.239Z,100481.38
2023-04-29T18:23:40.185Z,100483.03
2023-04-29T18:28:41.725Z,100485.41
2023-04-29T18:33:43.803Z,100489.81
2023-04-29T18:38:45.121Z,100493.47
2023-04-29T18:43:46.487Z,100497.44
2023-04-29T18:48:48.520Z,100495.72
2023-04-29T18:53:49.933Z,100491.66
2023-04-29T18:58:51.373Z,100501.94
2023-04-29T19:03:52.825Z,100509.81
2023-04-29T19:08:54.393Z,100510.09
2023-04-29T19:13:56.066Z,100516.88
2023-04-29T19:18:57.416Z,100519.56
2023-04-29T19:23:58.889Z,100513.75
2023-04-29T19:29:00.671Z,100531.81
2023-04-29T19:34:02.047Z,100546.47
2023-04-29T19:39:04.351Z,100550.44
2023-04-29T19:44:06.626Z,100547.31
2023-04-29T19:49:08.062Z,100545.50
2023-04-29T19:54:10.370Z,100542.25
2023-04-29T19:59:13.253Z,100554.22
2023-04-29T20:04:14.623Z,100552.13
2023-04-29T20:09:16.348Z,100553.81
2023-04-29T20:14:17.741Z,100563.53
2023-04-29T20:19:19.424Z,100569.03
2023-04-29T20:24:20.918Z,100576.06
2023-04-29T20:29:22.409Z,100556.34
2023-04-29T20:34:23.810Z,100572.13
2023-04-29T20:39:25.984Z,100566.75
2023-04-29T20:44:28.000Z,100574.09
2023-04-29T20:49:29.440Z,100569.16
2023-04-29T20:54:30.993Z,100567.63
2023-04-29T20:59:35.511Z,100562.25
2023-04-29T21:04:36.875Z,100565.91
2023-04-29T21:09:38.940Z,100579.16
2023-04-29T21:14:42.168Z,100575.66
2023-04-29T21:19:44.620Z,100592.41
2023-04-29T21:24:46.024Z,100586.06
2023-04-29T21:29:47.419Z,100579.44
2023-04-29T21:34:49.115Z,100577.78
2023-04-29T21:39:51.327Z,100580.59
2023-04-29T21:44:59.453Z,100585.94
2023-04-29T21:50:01.201Z,100590.56
2023-04-29T21:55:06.273Z,100583.66
2023-04-29T22:00:21.173Z,100588.44
2023-04-29T22:05:22.500Z,100597.91
2023-04-29T22:10:23.856Z,100600.84
2023-04-29T22:15:28.555Z,100602.81
2023-04-29T22:20:30.895Z,100594.22
2023-04-29T22:25:32.332Z,100604.09
2023-04-29T22:30:33.665Z,100604.22
2023-04-29T22:35:35.289Z,100619.41
2023-04-29T22:40:37.564Z,100618.59
2023-04-29T22:45:38.864Z,100618.03
2023-04-29T22:50:40.874Z,100619.41
2023-04-29T22:55:52.292Z,100616.88
2023-04-29T23:00:56.773Z,100618.53
2023-04-29T23:05:59.564Z,100618.00
2023-04-29T23:11:01.156Z,100616.28
2023-04-29T23:16:03.495Z,100607.56
2023-04-29T23:21:05.069Z,100625.44
2023-04-29T23:26:06.517Z,100621.22
2023-04-29T23:31:08.388Z,100617.25
2023-04-29T23:36:09.784Z,100627.81
2023-04-29T23:41:11.208Z,100625.00
2023-04-29T23:46:12.886Z,100627.66
2023-04-29T23:51:14.242Z,100614.00
2023-04-29T23:56:15.522Z,100620.19
